Time;durP1;ratioP1;P1;durP2;ratioP2;P2;SDS_P1;SDS_P2;PMS_P1;PMS_P2;Temp;Humidity;BMP_temperature;BMP_pressure;BME280_temperature;BME280_humidity;BME280_pressure;Samples;Min_cycle;Max_cycle;Signal;HPM_P1;HPM_P2
2023/10/02 00:01:19;;;;;;;3.65;3.30;;;;;;;;;;5140999;27;20233;-65
2023/10/02 00:03:48;;;;;;;4.13;3.35;;;;;;;;;;5140888;27;20301;-65
2023/10/02 00:06:17;;;;;;;4.22;3.72;;;;;;;;;;5141178;27;20473;-65
2023/10/02 00:08:49;;;;;;;4.13;3.60;;;;;;;;;;5140885;27;20202;-65
2023/10/02 00:11:39;;;;;;;4.20;3.80;;;;;;;;;;5141202;27;20209;-65
2023/10/02 00:14:19;;;;;;;3.85;3.47;;;;;;;;;;5141244;27;20517;-65
2023/10/02 00:16:58;;;;;;;5.07;4.00;;;;;;;;;;5140647;27;20510;-65
2023/10/02 00:19:27;;;;;;;4.53;3.92;;;;;;;;;;5140948;27;20252;-65
2023/10/02 00:21:57;;;;;;;4.00;3.60;;;;;;;;;;5140356;27;20233;-65
2023/10/02 00:24:26;;;;;;;4.28;3.88;;;;;;;;;;5140888;27;20202;-65
2023/10/02 00:26:57;;;;;;;4.10;3.70;;;;;;;;;;5140784;27;20481;-65
2023/10/02 00:29:25;;;;;;;3.70;3.28;;;;;;;;;;5140768;27;20202;-65
2023/10/02 00:31:53;;;;;;;3.35;3.05;;;;;;;;;;5140513;27;20228;-65
2023/10/02 00:34:30;;;;;;;3.80;3.40;;;;;;;;;;5140411;27;20301;-65
2023/10/02 00:36:58;;;;;;;4.10;3.70;;;;;;;;;;5140548;27;20208;-65
2023/10/02 00:39:30;;;;;;;4.20;3.72;;;;;;;;;;5140435;27;20297;-65
2023/10/02 00:42:16;;;;;;;4.40;3.38;;;;;;;;;;5140167;27;20269;-65
2023/10/02 00:44:54;;;;;;;4.28;3.50;;;;;;;;;;5140106;27;20222;-65
2023/10/02 00:47:47;;;;;;;4.00;3.58;;;;;;;;;;5140449;27;20202;-65
2023/10/02 00:50:18;;;;;;;3.88;3.20;;;;;;;;;;5140133;27;20246;-65
2023/10/02 00:52:58;;;;;;;3.58;3.28;;;;;;;;;;5139828;27;20223;-66
2023/10/02 00:55:26;;;;;;;4.18;3.67;;;;;;;;;;5139787;27;20657;-65
2023/10/02 00:57:57;;;;;;;4.32;3.70;;;;;;;;;;5140186;27;20569;-65
2023/10/02 01:00:35;;;;;;;3.88;3.47;;;;;;;;;;5139714;27;20202;-65
2023/10/02 01:03:04;;;;;;;4.68;3.67;;;;;;;;;;5140468;27;20202;-65
2023/10/02 01:05:41;;;;;;;4.20;3.50;;;;;;;;;;5140143;27;20207;-66
2023/10/02 01:08:23;;;;;;;3.50;3.20;;;;;;;;;;5139735;27;20201;-67
2023/10/02 01:10:56;;;;;;;3.55;3.20;;;;;;;;;;5139908;27;20205;-65
2023/10/02 01:13:27;;;;;;;4.13;3.47;;;;;;;;;;5139748;27;20484;-65
2023/10/02 01:15:55;;;;;;;3.90;3.50;;;;;;;;;;5139722;27;20313;-66
2023/10/02 01:18:22;;;;;;;3.65;3.25;;;;;;;;;;5139787;27;20252;-65
2023/10/02 01:20:53;;;;;;;3.58;3.20;;;;;;;;;;5138714;27;20687;-65
2023/10/02 01:23:25;;;;;;;3.90;3.30;;;;;;;;;;5140027;27;20532;-65
2023/10/02 01:25:57;;;;;;;4.07;3.67;;;;;;;;;;5139555;27;20206;-66
2023/10/02 01:28:26;;;;;;;3.95;3.55;;;;;;;;;;5139272;27;20202;-65
2023/10/02 01:30:55;;;;;;;3.70;3.30;;;;;;;;;;5139191;27;20199;-65
2023/10/02 01:33:26;;;;;;;3.83;3.42;;;;;;;;;;5139263;27;20202;-65
2023/10/02 01:35:55;;;;;;;4.40;3.95;;;;;;;;;;5139456;27;20206;-65
2023/10/02 01:38:26;;;;;;;3.45;3.15;;;;;;;;;;5139087;27;20655;-65
2023/10/02 01:41:03;;;;;;;4.35;3.70;;;;;;;;;;5139214;27;20233;-65
2023/10/02 01:43:32;;;;;;;4.13;3.42;;;;;;;;;;5139209;27;20208;-65
2023/10/02 01:46:00;;;;;;;3.85;3.20;;;;;;;;;;5139710;27;20206;-65
2023/10/02 01:48:44;;;;;;;3.72;3.33;;;;;;;;;;5139177;27;20206;-65
2023/10/02 01:51:25;;;;;;;3.53;3.22;;;;;;;;;;5139031;27;20227;-66
2023/10/02 01:53:54;;;;;;;4.05;3.38;;;;;;;;;;5139195;27;20206;-65
2023/10/02 01:56:24;;;;;;;3.58;3.28;;;;;;;;;;5139060;27;20206;-65
2023/10/02 01:58:52;;;;;;;3.28;2.97;;;;;;;;;;5139239;27;20256;-65
2023/10/02 02:01:21;;;;;;;3.63;3.17;;;;;;;;;;5139032;27;20266;-65
2023/10/02 02:03:50;;;;;;;3.38;3.08;;;;;;;;;;5138884;27;20210;-65
2023/10/02 02:06:20;;;;;;;3.33;3.03;;;;;;;;;;5138894;27;20270;-65
2023/10/02 02:08:53;;;;;;;3.65;3.15;;;;;;;;;;5138807;27;20202;-65
2023/10/02 02:11:21;;;;;;;3.20;2.90;;;;;;;;;;5139101;27;20209;-65
2023/10/02 02:13:51;;;;;;;3.92;3.30;;;;;;;;;;5138851;27;20296;-65
2023/10/02 02:16:22;;;;;;;3.33;3.00;;;;;;;;;;5138407;27;20329;-65
2023/10/02 02:18:50;;;;;;;3.67;3.20;;;;;;;;;;5138738;27;20202;-65
2023/10/02 02:21:19;;;;;;;3.83;3.45;;;;;;;;;;5138357;28;20237;-65
2023/10/02 02:23:48;;;;;;;3.70;3.30;;;;;;;;;;5137718;28;20297;-65
2023/10/02 02:26:21;;;;;;;3.85;3.47;;;;;;;;;;5117978;28;20756;-65
2023/10/02 02:28:51;;;;;;;3.67;3.30;;;;;;;;;;5117982;28;20211;-65
2023/10/02 02:31:31;;;;;;;3.50;3.20;;;;;;;;;;5118152;28;20230;-65
2023/10/02 02:33:59;;;;;;;4.28;3.25;;;;;;;;;;5122320;28;20531;-65
2023/10/02 02:36:27;;;;;;;3.67;3.28;;;;;;;;;;5121917;28;20205;-66
2023/10/02 02:39:15;;;;;;;3.47;3.17;;;;;;;;;;5122180;28;20491;-65
2023/10/02 02:41:43;;;;;;;3.90;3.33;;;;;;;;;;5121968;28;20500;-66
2023/10/02 02:44:29;;;;;;;3.67;3.00;;;;;;;;;;5122281;28;20230;-66
2023/10/02 02:46:59;;;;;;;4.60;3.60;;;;;;;;;;5121897;28;20202;-66
2023/10/02 02:49:29;;;;;;;3.38;3.08;;;;;;;;;;5122114;28;20210;-66
2023/10/02 02:51:56;;;;;;;3.97;3.17;;;;;;;;;;5122226;28;20199;-66
2023/10/02 02:54:28;;;;;;;3.88;2.92;;;;;;;;;;5121934;28;20241;-66
2023/10/02 02:57:00;;;;;;;3.58;3.15;;;;;;;;;;5121883;28;20203;-66
2023/10/02 02:59:29;;;;;;;3.30;2.90;;;;;;;;;;5121626;28;20575;-66
2023/10/02 03:02:08;;;;;;;3.85;3.50;;;;;;;;;;5121371;28;20236;-66
2023/10/02 03:04:39;;;;;;;3.72;3.20;;;;;;;;;;5121601;28;20199;-66
2023/10/02 03:07:29;;;;;;;3.42;2.97;;;;;;;;;;5121606;28;20546;-65
2023/10/02 03:10:00;;;;;;;4.18;3.22;;;;;;;;;;5121300;28;20248;-65
2023/10/02 03:12:27;;;;;;;3.55;3.25;;;;;;;;;;5121496;28;20196;-65
2023/10/02 03:14:57;;;;;;;3.75;3.35;;;;;;;;;;5121199;28;20264;-65
2023/10/02 03:17:32;;;;;;;3.72;3.13;;;;;;;;;;5121484;28;20594;-65
2023/10/02 03:20:01;;;;;;;3.75;3.22;;;;;;;;;;5121459;28;20562;-66
2023/10/02 03:22:33;;;;;;;3.30;3.00;;;;;;;;;;5121032;28;20296;-66
2023/10/02 03:25:25;;;;;;;3.72;2.90;;;;;;;;;;5121402;28;20218;-66
2023/10/02 03:27:54;;;;;;;3.42;3.00;;;;;;;;;;5121525;28;20549;-66
2023/10/02 03:30:38;;;;;;;4.82;3.10;;;;;;;;;;5120941;28;20567;-66
2023/10/02 03:33:17;;;;;;;3.83;3.03;;;;;;;;;;5121148;28;20460;-65
2023/10/02 03:35:56;;;;;;;3.20;2.90;;;;;;;;;;5120975;28;20238;-65
2023/10/02 03:38:24;;;;;;;3.42;3.13;;;;;;;;;;5120996;28;20207;-65
2023/10/02 03:40:54;;;;;;;3.03;2.83;;;;;;;;;;5120104;28;20223;-65
2023/10/02 03:43:34;;;;;;;3.22;2.63;;;;;;;;;;5120005;28;20231;-65
2023/10/02 03:46:04;;;;;;;3.33;3.03;;;;;;;;;;5123110;27;20206;-65
2023/10/02 03:48:32;;;;;;;3.25;2.95;;;;;;;;;;5140965;27;20208;-65
2023/10/02 03:51:00;;;;;;;4.03;2.80;;;;;;;;;;5140420;27;20206;-65
2023/10/02 03:53:30;;;;;;;3.35;2.90;;;;;;;;;;5141061;27;20624;-65
2023/10/02 03:58:43;;;;;;;3.17;2.58;;;;;;;;;;5138656;27;20225;-65
2023/10/02 04:01:17;;;;;;;4.35;3.45;;;;;;;;;;5141046;27;20210;-65
2023/10/02 04:03:56;;;;;;;3.17;2.78;;;;;;;;;;5140978;27;20275;-65
2023/10/02 04:06:33;;;;;;;3.25;2.92;;;;;;;;;;5140781;27;20306;-65
2023/10/02 04:11:42;;;;;;;3.03;2.72;;;;;;;;;;5136786;27;20233;-65
2023/10/02 04:14:18;;;;;;;3.20;2.90;;;;;;;;;;5140143;27;20559;-65
2023/10/02 04:16:48;;;;;;;3.22;2.92;;;;;;;;;;5140098;27;20225;-65
2023/10/02 04:19:15;;;;;;;3.38;2.60;;;;;;;;;;5139935;27;20586;-65
2023/10/02 04:21:45;;;;;;;3.50;3.20;;;;;;;;;;5139961;27;20226;-65
2023/10/02 04:24:13;;;;;;;3.55;3.17;;;;;;;;;;5140218;27;20252;-65
2023/10/02 04:26:41;;;;;;;3.40;3.10;;;;;;;;;;5140018;27;20202;-65
2023/10/02 04:29:26;;;;;;;3.30;3.00;;;;;;;;;;5140479;27;20208;-65
2023/10/02 04:32:14;;;;;;;3.33;3.03;;;;;;;;;;5140158;27;20661;-65
2023/10/02 04:34:56;;;;;;;3.83;3.10;;;;;;;;;;5140225;27;20260;-65
2023/10/02 04:37:23;;;;;;;3.58;3.00;;;;;;;;;;5140168;27;20202;-66
2023/10/02 04:40:13;;;;;;;3.17;2.88;;;;;;;;;;5140079;27;20280;-66
2023/10/02 04:45:25;;;;;;;3.90;3.40;;;;;;;;;;5138597;27;20521;-65
2023/10/02 04:47:55;;;;;;;3.20;2.90;;;;;;;;;;5139897;27;20202;-65
2023/10/02 04:50:34;;;;;;;3.13;2.83;;;;;;;;;;5139783;27;20206;-65
2023/10/02 04:53:17;;;;;;;3.22;2.78;;;;;;;;;;5139352;27;20202;-65
2023/10/02 04:55:48;;;;;;;3.17;2.88;;;;;;;;;;5138319;27;20202;-65
2023/10/02 04:58:19;;;;;;;3.10;2.80;;;;;;;;;;5139408;27;20237;-65
2023/10/02 05:03:29;;;;;;;3.53;2.80;;;;;;;;;;5137628;27;20232;-65
2023/10/02 05:05:58;;;;;;;3.33;2.80;;;;;;;;;;5138084;27;20642;-65
2023/10/02 05:08:33;;;;;;;3.00;2.72;;;;;;;;;;5138460;27;20236;-65
2023/10/02 05:11:05;;;;;;;3.20;2.90;;;;;;;;;;5138821;27;20223;-65
2023/10/02 05:16:26;;;;;;;3.65;3.00;;;;;;;;;;5138768;27;20287;-65
2023/10/02 05:18:54;;;;;;;3.08;2.70;;;;;;;;;;5139567;27;20205;-65
2023/10/02 05:21:35;;;;;;;3.15;2.80;;;;;;;;;;5139253;27;20202;-65
2023/10/02 05:24:02;;;;;;;3.67;3.10;;;;;;;;;;5139311;27;20190;-65
2023/10/02 05:26:39;;;;;;;3.42;3.00;;;;;;;;;;5139094;27;20281;-65
2023/10/02 05:29:07;;;;;;;3.97;3.05;;;;;;;;;;5139065;27;20202;-65
2023/10/02 05:31:35;;;;;;;3.20;2.83;;;;;;;;;;5138299;27;20536;-65
2023/10/02 05:34:13;;;;;;;3.55;3.00;;;;;;;;;;5138471;27;20663;-65
2023/10/02 05:36:55;;;;;;;3.60;2.90;;;;;;;;;;5138818;27;20201;-65
2023/10/02 05:39:31;;;;;;;3.25;2.95;;;;;;;;;;5138158;27;20202;-65
2023/10/02 05:42:05;;;;;;;3.83;3.20;;;;;;;;;;5138675;27;20228;-65
2023/10/02 05:44:34;;;;;;;2.83;2.60;;;;;;;;;;5138925;27;20560;-65
2023/10/02 05:47:06;;;;;;;3.20;2.90;;;;;;;;;;5137880;27;20721;-66
2023/10/02 05:49:36;;;;;;;3.17;2.88;;;;;;;;;;5138487;27;20206;-65
2023/10/02 05:52:05;;;;;;;3.42;3.13;;;;;;;;;;5138127;27;20205;-65
2023/10/02 05:54:35;;;;;;;3.20;2.70;;;;;;;;;;5138204;27;20241;-66
2023/10/02 05:57:13;;;;;;;3.15;2.85;;;;;;;;;;5138152;27;20631;-65
2023/10/02 05:59:48;;;;;;;3.25;2.90;;;;;;;;;;5138699;27;20229;-65
2023/10/02 06:02:18;;;;;;;3.00;2.70;;;;;;;;;;5138191;27;20221;-65
2023/10/02 06:04:48;;;;;;;3.25;2.95;;;;;;;;;;5137660;27;20212;-65
2023/10/02 06:07:40;;;;;;;3.25;2.80;;;;;;;;;;5137421;27;20636;-65
2023/10/02 06:10:08;;;;;;;4.13;2.97;;;;;;;;;;5136883;27;20198;-65
2023/10/02 06:12:42;;;;;;;3.22;2.90;;;;;;;;;;5137727;27;20263;-65
2023/10/02 06:15:43;;;;;;;2.92;2.55;;;;;;;;;;5132969;27;20237;-65
2023/10/02 06:18:01;;;;;;;3.90;2.67;;;;;;;;;;5117003;28;20602;-65
2023/10/02 06:20:30;;;;;;;3.92;3.30;;;;;;;;;;5116801;28;20203;-65
2023/10/02 06:23:05;;;;;;;3.47;3.08;;;;;;;;;;5117202;28;20320;-65
2023/10/02 06:25:33;;;;;;;4.07;3.20;;;;;;;;;;5117281;28;20297;-65
2023/10/02 06:28:19;;;;;;;3.45;2.95;;;;;;;;;;5117133;28;20663;-65
2023/10/02 06:30:49;;;;;;;3.15;2.78;;;;;;;;;;5116984;28;20550;-65
2023/10/02 06:33:21;;;;;;;3.25;2.95;;;;;;;;;;5117836;28;20199;-65
2023/10/02 06:35:56;;;;;;;3.13;2.83;;;;;;;;;;5117819;28;20202;-65
2023/10/02 06:38:24;;;;;;;3.40;3.10;;;;;;;;;;5116733;28;20519;-65
2023/10/02 06:40:56;;;;;;;3.70;2.85;;;;;;;;;;5116470;28;20242;-66
2023/10/02 06:43:29;;;;;;;3.05;2.75;;;;;;;;;;5116858;28;20227;-65
2023/10/02 06:46:06;;;;;;;3.10;2.80;;;;;;;;;;5116448;28;20203;-65
2023/10/02 06:48:35;;;;;;;3.22;2.92;;;;;;;;;;5116411;28;20198;-65
2023/10/02 06:51:04;;;;;;;3.50;3.20;;;;;;;;;;5116831;28;20653;-65
2023/10/02 06:53:32;;;;;;;3.80;3.20;;;;;;;;;;5116783;28;20231;-65
2023/10/02 06:56:10;;;;;;;3.38;2.95;;;;;;;;;;5119033;28;20266;-65
2023/10/02 06:58:49;;;;;;;3.20;2.90;;;;;;;;;;5136346;28;20202;-65
2023/10/02 07:01:18;;;;;;;3.72;3.22;;;;;;;;;;5136497;28;20270;-65
2023/10/02 07:03:50;;;;;;;3.20;2.83;;;;;;;;;;5136745;28;20291;-65
2023/10/02 07:06:20;;;;;;;3.22;2.85;;;;;;;;;;5136236;28;20266;-65
2023/10/02 07:09:08;;;;;;;3.55;2.92;;;;;;;;;;5136398;28;20199;-65
2023/10/02 07:11:35;;;;;;;3.50;3.20;;;;;;;;;;5136502;28;20202;-65
2023/10/02 07:14:04;;;;;;;3.28;2.97;;;;;;;;;;5136305;28;20210;-65
2023/10/02 07:16:32;;;;;;;3.25;2.95;;;;;;;;;;5136474;28;20333;-65
2023/10/02 07:18:59;;;;;;;3.92;3.10;;;;;;;;;;5137172;27;20206;-65
2023/10/02 07:21:30;;;;;;;3.13;2.80;;;;;;;;;;5140342;27;20208;-65
2023/10/02 07:24:00;;;;;;;3.20;2.90;;;;;;;;;;5140054;27;20321;-65
2023/10/02 07:29:09;;;;;;;3.45;2.95;;;;;;;;;;5139493;27;20197;-65
2023/10/02 07:31:36;;;;;;;3.25;2.95;;;;;;;;;;5140310;27;20499;-65
2023/10/02 07:34:07;;;;;;;3.70;3.10;;;;;;;;;;5139646;27;20233;-65
2023/10/02 07:36:44;;;;;;;3.10;2.80;;;;;;;;;;5139908;27;20202;-66
2023/10/02 07:39:35;;;;;;;4.40;3.13;;;;;;;;;;5139417;27;20202;-66
2023/10/02 07:42:01;;;;;;;3.95;3.10;;;;;;;;;;5140134;27;20206;-65
2023/10/02 07:44:36;;;;;;;3.03;2.72;;;;;;;;;;5139367;27;20413;-66
2023/10/02 07:47:10;;;;;;;3.97;3.13;;;;;;;;;;5139318;27;20201;-66
2023/10/02 07:49:38;;;;;;;3.53;2.90;;;;;;;;;;5139824;27;20202;-66
2023/10/02 07:52:09;;;;;;;3.33;2.70;;;;;;;;;;5139048;27;20202;-66
2023/10/02 07:54:45;;;;;;;3.90;3.30;;;;;;;;;;5139407;27;20593;-66
2023/10/02 07:57:14;;;;;;;3.20;2.80;;;;;;;;;;5139077;27;20593;-66
2023/10/02 07:59:43;;;;;;;3.63;2.90;;;;;;;;;;5139209;27;20202;-66
2023/10/02 08:02:23;;;;;;;4.47;3.28;;;;;;;;;;5138602;27;20629;-66
2023/10/02 08:04:51;;;;;;;3.72;2.92;;;;;;;;;;5138486;27;20820;-66
2023/10/02 08:07:20;;;;;;;4.57;3.00;;;;;;;;;;5139268;27;20262;-66
2023/10/02 08:09:52;;;;;;;3.88;3.03;;;;;;;;;;5139033;27;20216;-66
2023/10/02 08:12:30;;;;;;;3.75;2.95;;;;;;;;;;5138938;27;20214;-66
2023/10/02 08:15:00;;;;;;;4.97;3.05;;;;;;;;;;5138890;27;20213;-66
2023/10/02 08:20:16;;;;;;;4.53;3.03;;;;;;;;;;5136974;27;20285;-66
2023/10/02 08:22:45;;;;;;;4.93;3.00;;;;;;;;;;5139100;27;20214;-66
2023/10/02 08:25:14;;;;;;;3.45;2.90;;;;;;;;;;5138786;27;20242;-66
2023/10/02 08:27:41;;;;;;;3.17;2.85;;;;;;;;;;5138615;27;20227;-66
2023/10/02 08:30:19;;;;;;;3.78;3.20;;;;;;;;;;5138258;27;20201;-66
2023/10/02 08:32:48;;;;;;;4.90;2.95;;;;;;;;;;5139177;27;20205;-66
2023/10/02 08:35:16;;;;;;;3.75;3.10;;;;;;;;;;5137947;27;20258;-66
2023/10/02 08:37:44;;;;;;;5.45;2.85;;;;;;;;;;5138302;27;20194;-66
2023/10/02 08:40:15;;;;;;;4.47;3.17;;;;;;;;;;5138447;27;20532;-66
2023/10/02 08:42:46;;;;;;;4.97;2.80;;;;;;;;;;5138463;27;20234;-66
2023/10/02 08:45:18;;;;;;;4.05;2.97;;;;;;;;;;5138391;27;20202;-66
2023/10/02 08:47:47;;;;;;;4.05;2.92;;;;;;;;;;5137835;27;20210;-66
2023/10/02 08:50:15;;;;;;;4.47;3.25;;;;;;;;;;5137995;27;20203;-66
2023/10/02 08:52:48;;;;;;;4.03;3.08;;;;;;;;;;5138023;27;20211;-66
2023/10/02 08:55:35;;;;;;;5.60;3.10;;;;;;;;;;5137222;27;20201;-66
2023/10/02 08:58:15;;;;;;;4.28;3.15;;;;;;;;;;5137790;27;20202;-66
2023/10/02 09:01:17;;;;;;;5.22;3.47;;;;;;;;;;5137206;27;20205;-66
2023/10/02 09:04:21;;;;;;;3.97;3.17;;;;;;;;;;5137413;27;20544;-66
2023/10/02 09:06:41;;;;;;;3.80;3.40;;;;;;;;;;5137541;27;20198;-66
2023/10/02 09:09:26;;;;;;;3.67;3.10;;;;;;;;;;5137349;27;20242;-66
2023/10/02 09:11:57;;;;;;;4.78;3.80;;;;;;;;;;5137396;27;20210;-66
2023/10/02 09:14:39;;;;;;;4.22;3.47;;;;;;;;;;5136942;27;20237;-66
2023/10/02 09:17:13;;;;;;;4.13;3.63;;;;;;;;;;5136696;27;20637;-66
2023/10/02 09:19:41;;;;;;;4.85;3.63;;;;;;;;;;5137358;27;20574;-66
2023/10/02 09:22:15;;;;;;;4.72;3.55;;;;;;;;;;5136330;27;20237;-66
2023/10/02 09:24:55;;;;;;;5.70;3.85;;;;;;;;;;5136995;27;20229;-66
2023/10/02 09:27:25;;;;;;;4.43;3.50;;;;;;;;;;5136746;27;20541;-66
2023/10/02 09:32:47;;;;;;;4.65;3.40;;;;;;;;;;5135958;27;20281;-66
2023/10/02 09:35:23;;;;;;;5.55;3.97;;;;;;;;;;5137335;27;20714;-66
2023/10/02 09:37:55;;;;;;;4.22;3.47;;;;;;;;;;5137275;27;20297;-66
2023/10/02 09:40:29;;;;;;;5.43;3.80;;;;;;;;;;5136559;27;20203;-66
2023/10/02 09:43:03;;;;;;;6.03;4.13;;;;;;;;;;5135302;27;20209;-66
2023/10/02 09:45:37;;;;;;;4.03;3.40;;;;;;;;;;5135978;27;20205;-66
2023/10/02 09:48:32;;;;;;;4.90;3.83;;;;;;;;;;5136469;27;20217;-66
2023/10/02 09:50:54;;;;;;;5.32;3.78;;;;;;;;;;5136206;27;20212;-66
2023/10/02 09:53:25;;;;;;;5.40;3.80;;;;;;;;;;5136337;27;20195;-66
2023/10/02 09:55:57;;;;;;;4.63;3.65;;;;;;;;;;5137431;27;20201;-66
2023/10/02 09:58:30;;;;;;;5.15;3.97;;;;;;;;;;5136897;27;20697;-66
2023/10/02 10:04:31;;;;;;;5.25;3.97;;;;;;;;;;5128589;27;20267;-66
2023/10/02 10:07:09;;;;;;;5.10;4.07;;;;;;;;;;5133494;27;20460;-66
2023/10/02 10:09:52;;;;;;;5.32;4.15;;;;;;;;;;5114962;28;20234;-66
2023/10/02 10:12:32;;;;;;;5.57;3.90;;;;;;;;;;5114495;28;20198;-66
2023/10/02 10:15:23;;;;;;;7.10;4.20;;;;;;;;;;5115419;28;20187;-66
2023/10/02 10:17:56;;;;;;;5.35;4.10;;;;;;;;;;5114681;28;20264;-66
2023/10/02 10:20:26;;;;;;;6.05;4.32;;;;;;;;;;5115424;28;20266;-66
2023/10/02 10:22:55;;;;;;;6.28;4.25;;;;;;;;;;5116309;28;20285;-66
2023/10/02 10:25:41;;;;;;;6.47;4.45;;;;;;;;;;5115766;28;20343;-66
2023/10/02 10:28:09;;;;;;;7.35;5.18;;;;;;;;;;5114735;28;20203;-66
2023/10/02 10:30:39;;;;;;;7.63;4.57;;;;;;;;;;5114603;28;20202;-66
2023/10/02 10:33:27;;;;;;;6.82;4.80;;;;;;;;;;5115649;28;20206;-66
2023/10/02 10:35:55;;;;;;;6.82;4.72;;;;;;;;;;5115430;28;20199;-66
2023/10/02 10:38:41;;;;;;;7.00;5.03;;;;;;;;;;5115204;28;20199;-66
2023/10/02 10:41:09;;;;;;;7.30;4.70;;;;;;;;;;5114945;28;20359;-66
2023/10/02 10:46:23;;;;;;;7.57;5.20;;;;;;;;;;5114708;28;20396;-66
2023/10/02 10:48:59;;;;;;;7.63;5.53;;;;;;;;;;5115975;28;20594;-66
2023/10/02 10:51:33;;;;;;;6.57;5.05;;;;;;;;;;5115430;28;20202;-65
2023/10/02 10:54:14;;;;;;;8.25;5.80;;;;;;;;;;5117798;28;20236;-65
2023/10/02 10:56:43;;;;;;;8.57;5.70;;;;;;;;;;5118152;28;20202;-65
2023/10/02 10:59:15;;;;;;;7.93;5.55;;;;;;;;;;5119617;28;20583;-65
2023/10/02 11:02:09;;;;;;;9.68;6.15;;;;;;;;;;5118161;28;20199;-65
2023/10/02 11:04:39;;;;;;;9.23;5.95;;;;;;;;;;5118567;28;20233;-65
2023/10/02 11:07:19;;;;;;;8.10;5.60;;;;;;;;;;5119081;28;20199;-65
2023/10/02 11:10:14;;;;;;;8.20;5.97;;;;;;;;;;5118963;28;20202;-64
2023/10/02 11:12:54;;;;;;;8.52;5.93;;;;;;;;;;5118650;28;20301;-65
2023/10/02 11:15:46;;;;;;;8.80;5.90;;;;;;;;;;5118140;28;20716;-65
2023/10/02 11:18:23;;;;;;;8.77;5.90;;;;;;;;;;5118573;28;20268;-65
2023/10/02 11:20:51;;;;;;;9.20;6.18;;;;;;;;;;5118339;28;20210;-65
2023/10/02 11:23:37;;;;;;;9.45;6.65;;;;;;;;;;5118751;28;20207;-65
2023/10/02 11:26:10;;;;;;;10.38;6.75;;;;;;;;;;5117647;28;20309;-66
2023/10/02 11:28:38;;;;;;;10.10;6.25;;;;;;;;;;5118093;28;20211;-66
2023/10/02 11:31:29;;;;;;;10.75;6.72;;;;;;;;;;5118374;28;20301;-65
2023/10/02 11:34:01;;;;;;;9.80;6.47;;;;;;;;;;5118810;28;20745;-65
2023/10/02 11:36:33;;;;;;;10.52;6.70;;;;;;;;;;5119130;28;20199;-65
2023/10/02 11:39:08;;;;;;;10.45;6.78;;;;;;;;;;5118715;28;20209;-65
2023/10/02 11:41:36;;;;;;;12.45;7.35;;;;;;;;;;5117911;28;20199;-65
2023/10/02 11:44:04;;;;;;;10.38;7.15;;;;;;;;;;5117508;28;20227;-65
2023/10/02 11:46:31;;;;;;;10.77;6.80;;;;;;;;;;5117678;28;20199;-65
2023/10/02 11:48:59;;;;;;;11.23;7.22;;;;;;;;;;5118082;28;20213;-65
2023/10/02 11:51:28;;;;;;;11.07;7.15;;;;;;;;;;5118065;28;20203;-65
2023/10/02 11:53:59;;;;;;;10.43;6.60;;;;;;;;;;5118042;28;20229;-66
2023/10/02 11:56:27;;;;;;;11.30;6.88;;;;;;;;;;5118224;28;20305;-66
2023/10/02 11:58:56;;;;;;;10.57;7.25;;;;;;;;;;5118607;28;20203;-65
2023/10/02 12:01:24;;;;;;;10.85;7.07;;;;;;;;;;5117522;28;20203;-65
2023/10/02 12:03:56;;;;;;;10.32;6.93;;;;;;;;;;5117807;28;20360;-65
2023/10/02 12:06:25;;;;;;;11.07;7.15;;;;;;;;;;5116615;28;20203;-65
2023/10/02 12:08:56;;;;;;;11.48;7.13;;;;;;;;;;5118110;28;20484;-65
2023/10/02 12:11:24;;;;;;;10.63;6.82;;;;;;;;;;5117499;28;20575;-65
2023/10/02 12:13:53;;;;;;;10.60;6.68;;;;;;;;;;5117906;28;20195;-66
2023/10/02 12:16:21;;;;;;;10.82;7.20;;;;;;;;;;5116884;28;20222;-66
2023/10/02 12:18:50;;;;;;;11.18;6.78;;;;;;;;;;5117093;28;20639;-66
2023/10/02 12:21:19;;;;;;;10.35;6.88;;;;;;;;;;5117363;28;20199;-66
2023/10/02 12:23:46;;;;;;;9.90;6.47;;;;;;;;;;5117294;28;20711;-66
2023/10/02 12:26:14;;;;;;;11.32;7.40;;;;;;;;;;5116154;28;20306;-66
2023/10/02 12:28:42;;;;;;;11.43;6.82;;;;;;;;;;5116092;28;20206;-66
2023/10/02 12:31:13;;;;;;;10.38;6.70;;;;;;;;;;5116765;28;20289;-66
2023/10/02 12:33:41;;;;;;;11.70;7.35;;;;;;;;;;5117255;28;20202;-65
2023/10/02 12:36:14;;;;;;;10.30;6.78;;;;;;;;;;5116010;28;20203;-65
2023/10/02 12:38:42;;;;;;;10.30;6.90;;;;;;;;;;5116364;28;20260;-65
2023/10/02 12:41:14;;;;;;;11.00;6.90;;;;;;;;;;5116210;28;20207;-65
2023/10/02 12:43:43;;;;;;;10.50;6.60;;;;;;;;;;5116678;28;20297;-65
2023/10/02 12:46:14;;;;;;;9.85;6.65;;;;;;;;;;5117108;28;20607;-65
2023/10/02 12:48:43;;;;;;;10.18;6.68;;;;;;;;;;5116613;28;20207;-65
2023/10/02 12:51:10;;;;;;;11.45;7.03;;;;;;;;;;5117392;28;20213;-65
2023/10/02 12:53:38;;;;;;;10.13;6.68;;;;;;;;;;5117463;28;20286;-66
2023/10/02 12:56:06;;;;;;;11.27;6.80;;;;;;;;;;5117079;28;20229;-66
2023/10/02 12:58:33;;;;;;;9.98;6.40;;;;;;;;;;5116967;28;20613;-66
2023/10/02 13:01:01;;;;;;;10.88;6.82;;;;;;;;;;5115695;28;20242;-66
2023/10/02 13:03:31;;;;;;;10.32;6.65;;;;;;;;;;5116363;28;20233;-66
2023/10/02 13:05:59;;;;;;;11.57;6.80;;;;;;;;;;5116103;28;20325;-65
2023/10/02 13:08:26;;;;;;;8.90;6.22;;;;;;;;;;5116820;28;20532;-65
2023/10/02 13:10:54;;;;;;;10.23;6.85;;;;;;;;;;5116894;28;20302;-65
2023/10/02 13:13:21;;;;;;;11.30;7.13;;;;;;;;;;5116049;28;20217;-65
2023/10/02 13:15:50;;;;;;;10.20;6.07;;;;;;;;;;5133421;27;20275;-65
2023/10/02 13:18:17;;;;;;;9.43;6.35;;;;;;;;;;5135454;27;20285;-65
2023/10/02 13:20:47;;;;;;;10.43;6.45;;;;;;;;;;5136824;27;20209;-65
2023/10/02 13:23:14;;;;;;;9.57;6.70;;;;;;;;;;5136456;27;20212;-65
2023/10/02 13:25:42;;;;;;;10.45;6.88;;;;;;;;;;5136301;27;20218;-65
2023/10/02 13:28:11;;;;;;;10.48;6.63;;;;;;;;;;5136232;27;20213;-65
2023/10/02 13:30:40;;;;;;;9.80;6.30;;;;;;;;;;5136594;27;20198;-65
2023/10/02 13:33:07;;;;;;;10.45;6.72;;;;;;;;;;5135588;27;20233;-65
2023/10/02 13:35:38;;;;;;;10.13;6.45;;;;;;;;;;5136170;27;20206;-65
2023/10/02 13:38:09;;;;;;;9.98;6.63;;;;;;;;;;5135870;27;20695;-65
2023/10/02 13:40:38;;;;;;;10.80;6.40;;;;;;;;;;5136031;27;20194;-65
2023/10/02 13:43:07;;;;;;;10.07;6.95;;;;;;;;;;5135525;27;20202;-66
2023/10/02 13:45:36;;;;;;;10.27;6.55;;;;;;;;;;5136234;27;20236;-66
2023/10/02 13:48:04;;;;;;;11.15;6.95;;;;;;;;;;5135871;27;20209;-66
2023/10/02 13:50:35;;;;;;;10.10;6.70;;;;;;;;;;5136092;27;20205;-66
2023/10/02 13:53:04;;;;;;;10.45;6.63;;;;;;;;;;5135001;27;20202;-66
2023/10/02 13:55:35;;;;;;;10.30;6.53;;;;;;;;;;5135896;27;20205;-66
2023/10/02 13:58:06;;;;;;;10.85;7.18;;;;;;;;;;5134866;27;20806;-66
2023/10/02 14:00:39;;;;;;;10.75;6.82;;;;;;;;;;5136055;27;20313;-66
2023/10/02 14:03:12;;;;;;;9.30;6.43;;;;;;;;;;5135758;27;20301;-66
2023/10/02 14:05:41;;;;;;;11.00;7.13;;;;;;;;;;5135991;27;20222;-66
2023/10/02 14:08:09;;;;;;;10.32;6.60;;;;;;;;;;5135786;27;20202;-66
2023/10/02 14:10:41;;;;;;;10.70;7.03;;;;;;;;;;5136093;27;20264;-66
2023/10/02 14:13:09;;;;;;;10.45;6.60;;;;;;;;;;5135539;27;20213;-66
2023/10/02 14:15:37;;;;;;;9.30;6.18;;;;;;;;;;5135871;27;20268;-66
2023/10/02 14:18:04;;;;;;;9.82;6.72;;;;;;;;;;5135067;27;20255;-66
2023/10/02 14:20:32;;;;;;;11.02;6.85;;;;;;;;;;5134921;27;20278;-66
2023/10/02 14:23:00;;;;;;;11.02;6.97;;;;;;;;;;5135042;27;20223;-66
2023/10/02 14:25:27;;;;;;;10.10;6.53;;;;;;;;;;5134539;28;20249;-66
2023/10/02 14:27:56;;;;;;;10.55;6.68;;;;;;;;;;5134015;27;20209;-66
2023/10/02 14:30:24;;;;;;;10.57;6.82;;;;;;;;;;5135137;28;20200;-66
2023/10/02 14:32:52;;;;;;;10.35;6.85;;;;;;;;;;5134697;27;20259;-66
2023/10/02 14:35:20;;;;;;;10.45;6.97;;;;;;;;;;5134682;28;20268;-66
2023/10/02 14:37:49;;;;;;;10.90;6.65;;;;;;;;;;5134488;28;20202;-66
2023/10/02 14:40:19;;;;;;;9.40;6.53;;;;;;;;;;5135072;28;20542;-66
2023/10/02 14:42:48;;;;;;;10.25;6.63;;;;;;;;;;5134109;28;20833;-66
2023/10/02 14:45:17;;;;;;;10.40;7.07;;;;;;;;;;5135117;28;20230;-66
2023/10/02 14:47:45;;;;;;;11.07;7.03;;;;;;;;;;5134694;27;20298;-66
2023/10/02 14:50:16;;;;;;;11.27;6.90;;;;;;;;;;5135447;28;20281;-66
2023/10/02 14:52:44;;;;;;;11.38;7.38;;;;;;;;;;5135357;28;20206;-66
2023/10/02 14:55:17;;;;;;;10.55;6.68;;;;;;;;;;5117341;28;20470;-66
2023/10/02 14:57:45;;;;;;;9.98;6.38;;;;;;;;;;5114806;28;20284;-66
2023/10/02 15:00:14;;;;;;;11.70;7.53;;;;;;;;;;5115413;28;20210;-66
2023/10/02 15:02:43;;;;;;;11.13;6.85;;;;;;;;;;5118778;28;20195;-66
2023/10/02 15:05:15;;;;;;;10.35;7.03;;;;;;;;;;5114192;28;20507;-66
2023/10/02 15:07:43;;;;;;;10.85;6.82;;;;;;;;;;5114470;28;20203;-66
2023/10/02 15:10:11;;;;;;;9.82;6.50;;;;;;;;;;5112695;28;20203;-66
2023/10/02 15:12:39;;;;;;;11.70;7.32;;;;;;;;;;5113896;28;20211;-66
2023/10/02 15:15:13;;;;;;;10.00;6.72;;;;;;;;;;5111391;28;20296;-66
2023/10/02 15:17:43;;;;;;;10.57;7.10;;;;;;;;;;5093078;28;20230;-66
2023/10/02 15:20:14;;;;;;;11.45;6.95;;;;;;;;;;5094556;28;20607;-66
2023/10/02 15:22:42;;;;;;;10.45;6.85;;;;;;;;;;5094013;28;20207;-66
2023/10/02 15:25:13;;;;;;;10.70;7.00;;;;;;;;;;5093631;28;20224;-66
2023/10/02 15:27:42;;;;;;;8.95;6.35;;;;;;;;;;5093958;28;20277;-66
2023/10/02 15:30:11;;;;;;;9.77;6.82;;;;;;;;;;5093236;28;20204;-66
2023/10/02 15:32:38;;;;;;;9.20;6.68;;;;;;;;;;5093675;28;20200;-66
2023/10/02 15:35:11;;;;;;;9.55;6.68;;;;;;;;;;5093488;28;20298;-66
2023/10/02 15:37:38;;;;;;;9.77;6.70;;;;;;;;;;5094478;28;20208;-65
2023/10/02 15:40:08;;;;;;;9.90;6.70;;;;;;;;;;5094149;28;20486;-66